createdAt,value
2023-05-04T00:01:46.047Z,102058.99
2023-05-04T00:05:38.313Z,102059.27
2023-05-04T00:09:02.861Z,102059.25
2023-05-04T00:12:47.920Z,102057.86
2023-05-04T00:15:59.847Z,102058.54
2023-05-04T00:19:26.022Z,102058.55
2023-05-04T00:22:33.248Z,102056.99
2023-05-04T00:25:52.342Z,102055.06
2023-05-04T00:28:56.431Z,102056.42
2023-05-04T00:31:49.203Z,102053.13
2023-05-04T00:35:08.263Z,102051.72
2023-05-04T00:38:45.576Z,102056.73
2023-05-04T00:41:49.051Z,102057.73
2023-05-04T00:45:43.226Z,102054.95
2023-05-04T00:49:22.596Z,102056.14
2023-05-04T00:52:39.863Z,102054.94
2023-05-04T00:56:21.684Z,102050.27
2023-05-04T00:59:44.103Z,102048.17
2023-05-04T01:03:44.817Z,102046.69
2023-05-04T01:07:25.069Z,102046.10
2023-05-04T01:11:30.189Z,102045.11
2023-05-04T01:15:23.846Z,102042.89
2023-05-04T01:19:33.257Z,102042.85
2023-05-04T01:23:16.242Z,102040.67
2023-05-04T01:26:56.145Z,102035.77
2023-05-04T01:30:18.910Z,102037.38
2023-05-04T01:34:18.213Z,102035.25
2023-05-04T01:38:18.932Z,102033.88
2023-05-04T01:42:08.736Z,102036.65
2023-05-04T01:45:56.887Z,102035.45
2023-05-04T01:49:30.755Z,102037.68
2023-05-04T01:53:15.177Z,102030.25
2023-05-04T01:57:24.751Z,102028.01
2023-05-04T02:01:22.256Z,102028.70
2023-05-04T02:05:24.573Z,102029.38
2023-05-04T02:09:34.119Z,102027.60
2023-05-04T02:13:36.412Z,102033.23
2023-05-04T02:17:44.696Z,102027.15
2023-05-04T02:21:18.328Z,102032.48
2023-05-04T02:25:26.807Z,102035.83
2023-05-04T02:29:28.882Z,102038.48
2023-05-04T02:33:04.625Z,102036.95
2023-05-04T02:37:14.292Z,102035.58
2023-05-04T02:41:12.650Z,102036.30
2023-05-04T02:44:54.844Z,102035.10
2023-05-04T02:48:53.201Z,102031.57
2023-05-04T02:52:34.018Z,102027.39
2023-05-04T02:56:34.544Z,102024.46
2023-05-04T03:00:44.148Z,102020.77
2023-05-04T03:04:46.581Z,102016.30
2023-05-04T03:08:31.102Z,102013.70
2023-05-04T03:12:07.660Z,102016.75
2023-05-04T03:16:09.766Z,102017.45
2023-05-04T03:19:44.130Z,102020.85
2023-05-04T03:23:19.549Z,102019.04
2023-05-04T03:27:01.486Z,102016.52
2023-05-04T03:30:12.973Z,102013.37
2023-05-04T03:34:00.113Z,102014.21
2023-05-04T03:37:46.996Z,102015.61
2023-05-04T03:41:15.614Z,102017.00
2023-05-04T03:44:25.371Z,102014.62
2023-05-04T03:48:35.163Z,102018.29
2023-05-04T03:52:17.624Z,102015.02
2023-05-04T03:56:25.627Z,102013.30
2023-05-04T03:59:58.167Z,102012.64
2023-05-04T04:04:00.820Z,102018.35
2023-05-04T04:07:46.776Z,102022.54
2023-05-04T04:11:56.147Z,102021.73
2023-05-04T04:15:46.786Z,102020.77
2023-05-04T04:19:48.747Z,102023.44
2023-05-04T04:23:24.662Z,102023.66
2023-05-04T04:27:02.174Z,102028.32
2023-05-04T04:30:25.679Z,102030.91
2023-05-04T04:33:39.298Z,102031.77
2023-05-04T04:37:29.483Z,102035.74
2023-05-04T04:41:06.696Z,102035.05
2023-05-04T04:44:51.723Z,102032.32
2023-05-04T04:48:34.020Z,102034.06
2023-05-04T04:52:04.024Z,102032.41
2023-05-04T04:55:38.272Z,102029.36
2023-05-04T04:59:47.948Z,102032.85
2023-05-04T05:03:56.108Z,102033.77
2023-05-04T05:08:05.523Z,102033.54
2023-05-04T05:12:14.762Z,102029.33
2023-05-04T05:16:09.355Z,102025.63
2023-05-04T05:20:18.899Z,102029.88
2023-05-04T05:24:21.010Z,102031.37
2023-05-04T05:28:03.938Z,102031.48
2023-05-04T05:31:53.392Z,102028.64
2023-05-04T05:35:35.202Z,102024.39
2023-05-04T05:39:21.939Z,102021.17
2023-05-04T05:42:25.033Z,102016.77
2023-05-04T05:45:48.830Z,102015.94
2023-05-04T05:49:47.072Z,102013.92
2023-05-04T05:53:56.451Z,102012.27
2023-05-04T05:57:24.245Z,102016.47
2023-05-04T06:00:55.556Z,102018.75
2023-05-04T06:04:17.907Z,102020.01
2023-05-04T06:08:22.484Z,102016.92
2023-05-04T06:12:12.405Z,102015.41
2023-05-04T06:15:27.185Z,102014.58
2023-05-04T06:19:13.606Z,102018.42
2023-05-04T06:23:23.253Z,102015.67
2023-05-04T06:27:25.858Z,102013.61
2023-05-04T06:31:18.310Z,102014.51
2023-05-04T06:34:32.690Z,102015.40
2023-05-04T06:37:54.537Z,102009.88
2023-05-04T06:41:36.346Z,102010.59
2023-05-04T06:45:39.601Z,102008.88
2023-05-04T06:49:17.891Z,102010.46
2023-05-04T06:52:42.674Z,102005.77
2023-05-04T06:56:05.738Z,102004.75
2023-05-04T06:59:23.656Z,102003.02
2023-05-04T07:02:35.068Z,102005.45
2023-05-04T07:06:17.346Z,102005.98
2023-05-04T07:09:45.153Z,102002.67
2023-05-04T07:13:54.600Z,102003.89
2023-05-04T07:17:16.380Z,102002.15
2023-05-04T07:20:31.722Z,102000.94
2023-05-04T07:24:14.022Z,101997.63
2023-05-04T07:27:38.134Z,101991.73
2023-05-04T07:31:20.440Z,101990.00
2023-05-04T07:34:54.821Z,101991.20
2023-05-04T07:38:44.751Z,101985.64
2023-05-04T07:42:54.345Z,101989.09
2023-05-04T07:46:45.361Z,101992.38
2023-05-04T07:50:41.583Z,101989.61
2023-05-04T07:54:33.664Z,101989.93
2023-05-04T07:57:51.496Z,101984.73
2023-05-04T08:01:49.980Z,101986.45
2023-05-04T08:05:41.321Z,101985.92
2023-05-04T08:08:43.125Z,101985.73
2023-05-04T08:12:28.390Z,101986.41
2023-05-04T08:16:23.772Z,101987.94
2023-05-04T08:20:04.332Z,101982.88
2023-05-04T08:23:47.571Z,101980.27
2023-05-04T08:27:07.861Z,101980.60
2023-05-04T08:29:47.253Z,101983.53
2023-05-04T08:32:59.442Z,101986.99
2023-05-04T08:36:25.369Z,101985.44
2023-05-04T08:39:47.916Z,101987.86
2023-05-04T08:43:18.558Z,101996.20
2023-05-04T08:46:53.913Z,101995.52
2023-05-04T08:50:07.896Z,101995.88
2023-05-04T08:53:28.544Z,101996.91
2023-05-04T08:57:00.167Z,101998.09
2023-05-04T09:00:29.713Z,101996.67
2023-05-04T09:04:12.392Z,101998.39
2023-05-04T09:07:51.958Z,101997.16
2023-05-04T09:11:54.571Z,101993.34
2023-05-04T09:15:19.789Z,101990.36
2023-05-04T09:18:54.290Z,101986.52
2023-05-04T09:22:20.016Z,101986.33
2023-05-04T09:26:11.567Z,101991.55
2023-05-04T09:29:49.700Z,101987.00
2023-05-04T09:33:13.048Z,101981.75
2023-05-04T09:36:55.673Z,101983.30
2023-05-04T09:40:54.062Z,101985.02
2023-05-04T09:43:57.819Z,101985.16
2023-05-04T09:47:47.408Z,101987.05
2023-05-04T09:51:19.544Z,101985.09
2023-05-04T09:54:41.412Z,101980.70
2023-05-04T09:58:19.279Z,101982.09
2023-05-04T10:01:44.106Z,101981.56
2023-05-04T10:05:21.618Z,101977.71
2023-05-04T10:08:36.515Z,101975.61
2023-05-04T10:12:15.499Z,101974.71
2023-05-04T10:16:05.373Z,101974.52
2023-05-04T10:20:07.347Z,101970.64
2023-05-04T10:24:02.014Z,101967.30
2023-05-04T10:27:32.369Z,101967.50
2023-05-04T10:30:43.964Z,101972.53
2023-05-04T10:34:25.280Z,101976.31
2023-05-04T10:37:39.376Z,101976.48
2023-05-04T10:41:20.478Z,101978.20
2023-05-04T10:45:08.876Z,101976.11
2023-05-04T10:49:08.724Z,101975.20
2023-05-04T10:52:38.223Z,101976.05
2023-05-04T10:55:47.898Z,101973.01
2023-05-04T10:59:07.990Z,101968.58
2023-05-04T11:03:02.447Z,101964.85
2023-05-04T11:06:35.388Z,101961.29
2023-05-04T11:09:26.709Z,101961.36
2023-05-04T11:11:58.039Z,101960.38
2023-05-04T11:15:06.088Z,101959.60
2023-05-04T11:18:10.425Z,101965.06
2023-05-04T11:21:42.196Z,101965.30
2023-05-04T11:25:39.630Z,101964.26
2023-05-04T11:29:15.965Z,101962.66
2023-05-04T11:33:01.374Z,101962.91
2023-05-04T11:36:50.578Z,101962.55
2023-05-04T11:39:58.222Z,101961.30
2023-05-04T11:43:01.467Z,101963.52
2023-05-04T11:45:54.831Z,101966.48
2023-05-04T11:49:26.217Z,101966.55
2023-05-04T11:53:12.225Z,101967.17
2023-05-04T11:56:08.494Z,101966.73
2023-05-04T11:58:47.368Z,101970.33
2023-05-04T12:01:54.826Z,101970.98
2023-05-04T12:05:24.924Z,101972.33
2023-05-04T12:09:06.249Z,101968.44
2023-05-04T12:12:53.149Z,101971.42
2023-05-04T12:16:29.049Z,101967.55
2023-05-04T12:20:06.716Z,101965.93
2023-05-04T12:23:05.135Z,101964.37
2023-05-04T12:26:15.362Z,101961.77
2023-05-04T12:29:09.877Z,101960.02
2023-05-04T12:31:38.732Z,101960.67
2023-05-04T12:34:29.432Z,101958.38
2023-05-04T12:37:23.880Z,101957.13
2023-05-04T12:43:02.414Z,101957.70
2023-05-04T12:45:31.056Z,101957.66
2023-05-04T12:48:23.174Z,101954.09
2023-05-04T12:50:52.216Z,101950.58
2023-05-04T12:53:30.232Z,101947.73
2023-05-04T12:56:22.083Z,101947.05
2023-05-04T12:59:22.748Z,101945.34
2023-05-04T13:02:10.831Z,101942.88
2023-05-04T13:05:19.541Z,101940.80
2023-05-04T13:07:59.254Z,101940.86
2023-05-04T13:11:19.752Z,101939.19
2023-05-04T13:14:16.855Z,101937.33
2023-05-04T13:17:15.766Z,101935.65
2023-05-04T13:19:53.516Z,101933.02
2023-05-04T13:22:22.996Z,101932.55
2023-05-04T13:25:18.906Z,101930.04
2023-05-04T13:27:58.983Z,101926.64
2023-05-04T13:31:03.220Z,101921.84
2023-05-04T13:34:00.720Z,101915.67
2023-05-04T13:36:52.543Z,101914.59
2023-05-04T13:39:51.385Z,101910.43
2023-05-04T13:43:01.438Z,101908.48
2023-05-04T13:45:41.740Z,101904.80
2023-05-04T13:48:33.208Z,101906.10
2023-05-04T13:51:36.555Z,101904.25
2023-05-04T13:55:13.598Z,101905.48
2023-05-04T13:58:58.057Z,101906.98
2023-05-04T14:01:51.566Z,101904.30
2023-05-04T14:05:22.883Z,101902.71
2023-05-04T14:08:56.474Z,101898.94
2023-05-04T14:11:39.022Z,101893.24
2023-05-04T14:14:07.521Z,101891.83
2023-05-04T14:16:42.507Z,101893.87
2023-05-04T14:19:11.005Z,101892.54
2023-05-04T14:21:42.389Z,101889.77
2023-05-04T14:24:22.513Z,101891.20
2023-05-04T14:26:51.336Z,101890.73
2023-05-04T14:30:11.500Z,101886.11
2023-05-04T14:32:41.241Z,101882.81
2023-05-04T14:35:16.760Z,101880.40
2023-05-04T14:37:49.527Z,101881.13
2023-05-04T14:40:23.805Z,101877.45
2023-05-04T14:42:59.870Z,101877.74
2023-05-04T14:45:28.669Z,101878.77
2023-05-04T14:48:12.223Z,101882.56
2023-05-04T14:51:24.611Z,101884.24
2023-05-04T14:55:34.013Z,101884.37
2023-05-04T14:58:46.409Z,101880.91
2023-05-04T15:02:02.958Z,101880.17
2023-05-04T15:05:28.549Z,101879.32
2023-05-04T15:09:13.277Z,101876.21
2023-05-04T15:12:00.637Z,101880.20
2023-05-04T15:15:32.470Z,101879.96
2023-05-04T15:18:47.380Z,101880.86
2023-05-04T15:22:57.027Z,101878.11
2023-05-04T15:26:22.848Z,101874.20
2023-05-04T15:30:06.256Z,101873.27
2023-05-04T15:33:58.972Z,101866.30
2023-05-04T15:37:58.139Z,101865.14
2023-05-04T15:41:58.761Z,101862.70
2023-05-04T15:45:57.014Z,101864.93
2023-05-04T15:49:57.703Z,101867.38
2023-05-04T15:53:33.060Z,101864.21
2023-05-04T15:57:07.567Z,101857.54
2023-05-04T16:00:39.726Z,101855.63
2023-05-04T16:16:55.354Z,101859.26
2023-05-04T16:20:54.935Z,101863.70
2023-05-04T16:23:55.215Z,101861.14
2023-05-04T16:27:46.274Z,101864.66
2023-05-04T16:31:01.697Z,101860.52
2023-05-04T16:33:49.178Z,101863.40
2023-05-04T16:37:23.602Z,101863.06
2023-05-04T16:40:43.325Z,101862.89
2023-05-04T16:43:47.418Z,101866.92
2023-05-04T16:47:09.053Z,101868.56
2023-05-04T16:50:20.833Z,101864.95
2023-05-04T16:54:09.824Z,101866.30
2023-05-04T16:57:27.492Z,101864.48
2023-05-04T17:00:46.981Z,101867.54
2023-05-04T17:04:38.731Z,101863.23
2023-05-04T17:07:42.222Z,101865.73
2023-05-04T17:11:18.682Z,101873.44
2023-05-04T17:14:42.025Z,101869.55
2023-05-04T17:17:46.883Z,101871.66
2023-05-04T17:21:16.826Z,101870.80
2023-05-04T17:23:48.761Z,101870.67
2023-05-04T17:26:23.215Z,101874.87
2023-05-04T17:28:54.946Z,101874.04
2023-05-04T17:31:35.289Z,101872.57
2023-05-04T17:34:40.329Z,101878.19
2023-05-04T17:37:38.041Z,101884.81
2023-05-04T17:40:16.347Z,101885.54
2023-05-04T17:42:51.034Z,101888.85
2023-05-04T17:46:04.769Z,101891.48
2023-05-04T17:49:23.286Z,101892.57
2023-05-04T17:51:58.248Z,101892.77
2023-05-04T17:54:39.108Z,101896.06
2023-05-04T17:57:24.050Z,101898.35
2023-05-04T17:59:52.594Z,101898.22
2023-05-04T18:02:35.863Z,101902.79
2023-05-04T18:05:32.666Z,101904.38
2023-05-04T18:09:25.843Z,101910.98
2023-05-04T18:12:39.883Z,101922.10
2023-05-04T18:15:25.141Z,101923.69
2023-05-04T18:18:17.358Z,101923.88
2023-05-04T18:20:56.598Z,101930.48
2023-05-04T18:23:53.470Z,101931.36
2023-05-04T18:26:52.585Z,101934.87
2023-05-04T18:29:48.636Z,101940.09
2023-05-04T18:33:08.941Z,101946.34
2023-05-04T18:38:09.180Z,101948.95
2023-05-04T18:40:41.100Z,101947.05
2023-05-04T18:43:49.011Z,101950.36
2023-05-04T18:47:01.075Z,101952.61
2023-05-04T18:49:54.986Z,101953.48
2023-05-04T18:53:09.266Z,101959.92
2023-05-04T18:55:38.204Z,101965.84
2023-05-04T18:58:19.318Z,101972.27
2023-05-04T19:00:57.727Z,101975.25
2023-05-04T19:03:30.557Z,101978.20
2023-05-04T19:06:23.153Z,101979.42
2023-05-04T19:09:36.053Z,101984.45
2023-05-04T19:13:04.457Z,101986.89
2023-05-04T19:15:54.385Z,101996.10
2023-05-04T19:19:24.408Z,102000.96
2023-05-04T19:23:33.056Z,101999.60
2023-05-04T19:26:13.310Z,101997.00
2023-05-04T19:29:27.288Z,101997.52
2023-05-04T19:33:06.963Z,101995.46
2023-05-04T19:36:48.767Z,101993.38
2023-05-04T19:40:18.912Z,101998.24
2023-05-04T19:43:27.053Z,101997.55
2023-05-04T19:46:35.929Z,102001.72
2023-05-04T19:49:55.733Z,102005.20
2023-05-04T19:52:53.082Z,102009.36
2023-05-04T19:55:51.252Z,102008.68
2023-05-04T19:58:30.084Z,102009.20
2023-05-04T20:02:18.642Z,102010.92
2023-05-04T20:06:06.551Z,102013.53
2023-05-04T20:09:24.093Z,102015.96
2023-05-04T20:13:14.054Z,102016.51
2023-05-04T20:16:55.931Z,102012.34
2023-05-04T20:20:20.558Z,102016.52
2023-05-04T20:24:13.591Z,102020.67
2023-05-04T20:27:48.455Z,102023.12
2023-05-04T20:31:36.011Z,102022.41
2023-05-04T20:35:25.828Z,102022.08
2023-05-04T20:39:20.863Z,102022.61
2023-05-04T20:43:28.338Z,102027.13
2023-05-04T20:47:19.181Z,102032.15
2023-05-04T20:51:28.563Z,102030.06
2023-05-04T20:55:28.698Z,102031.46
2023-05-04T20:59:21.487Z,102035.97
2023-05-04T21:03:03.120Z,102035.45
2023-05-04T21:06:55.696Z,102038.41
2023-05-04T21:10:57.693Z,102040.65
2023-05-04T21:14:52.565Z,102039.79
2023-05-04T21:18:27.101Z,102039.09
2023-05-04T21:22:36.541Z,102036.14
2023-05-04T21:26:21.923Z,102028.17
2023-05-04T21:30:21.539Z,102033.72
2023-05-04T21:34:03.985Z,102031.64
2023-05-04T21:37:59.515Z,102029.90
2023-05-04T21:41:59.534Z,102026.43
2023-05-04T21:45:54.643Z,102021.58
2023-05-04T21:49:56.501Z,102020.02
2023-05-04T21:53:59.132Z,102020.18
2023-05-04T21:57:42.701Z,102016.01
2023-05-04T22:01:26.136Z,102010.83
2023-05-04T22:05:25.054Z,102012.38
2023-05-04T22:09:25.215Z,102016.54
2023-05-04T22:13:27.603Z,102014.27
2023-05-04T22:17:15.093Z,102014.40
2023-05-04T22:21:05.761Z,102012.31
2023-05-04T22:24:33.358Z,102014.23
2023-05-04T22:28:06.366Z,102016.48
2023-05-04T22:31:38.649Z,102015.44
2023-05-04T22:35:38.244Z,102015.09
2023-05-04T22:39:47.678Z,102017.69
2023-05-04T22:43:57.121Z,102017.50
2023-05-04T22:47:51.939Z,102014.90
2023-05-04T22:51:37.338Z,102017.14
2023-05-04T22:55:23.721Z,102013.16
2023-05-04T22:58:56.902Z,102012.11
2023-05-04T23:03:01.027Z,102010.71
2023-05-04T23:06:47.252Z,102001.19
2023-05-04T23:10:21.612Z,102005.86
2023-05-04T23:14:24.935Z,102007.09
2023-05-04T23:18:02.592Z,102007.09
2023-05-04T23:21:40.060Z,102007.09
2023-05-04T23:35:47.444Z,101997.73
2023-05-04T23:39:37.984Z,101993.91
2023-05-04T23:43:43.235Z,101993.73
2023-05-04T23:47:52.866Z,101992.52
2023-05-04T23:51:53.766Z,101991.49
2023-05-04T23:55:50.243Z,101992.35
2023-05-04T23:59:39.682Z,101992.19
